Bearville North, Minnesota
Current Conditions -  °F | °C
As of 4:14 PM on Wednesday 28 Jan 2015 (Local Time) from KCQM Reporting Station
Haze Haze  
Wind Chill: 21°   Ceiling: 900
Heat Index: 27°   Visibility: 5mi
Dew Point: 23°   Wind: 5mph
Humidity: 86%   Direction: 170°S
Pressure: 29.8"   Gusts: NA
Location:  47.8142°N, 92.9861°W
Report Text: KCQM 282214Z AUTO 17004KT 5SM BR OVC009 M03/M05 A2980 RMK AO2
Loading
Personal Weather Stations






























Interactive Weather Map New forecast layout! Learn more

10-Day Weather Forecast

Advertisements
Track Severe Weather on mobile